Time;durP1;ratioP1;P1;durP2;ratioP2;P2;SDS_P1;SDS_P2;PMS_P1;PMS_P2;Temp;Humidity;BMP_temperature;BMP_pressure;BME280_temperature;BME280_humidity;BME280_pressure;Samples;Min_cycle;Max_cycle;Signal;HPM_P1;HPM_P2
2021/06/26 00:01:17;;;;;;;;;;;27.80;56.20;;;;;;5132780;27;19980;-56
2021/06/26 00:03:44;;;;;;;;;;;27.80;56.20;;;;;;5132836;27;19923;-54
2021/06/26 00:06:11;;;;;;;;;;;27.80;56.20;;;;;;5126701;27;19963;-56
2021/06/26 00:08:38;;;;;;;;;;;27.80;56.20;;;;;;5120462;27;19924;-56
2021/06/26 00:11:05;;;;;;;;;;;27.80;56.20;;;;;;5128124;27;19973;-54
2021/06/26 00:13:32;;;;;;;;;;;27.80;56.20;;;;;;5119844;27;19931;-55
2021/06/26 00:15:59;;;;;;;;;;;27.80;56.20;;;;;;5131435;27;20340;-53
2021/06/26 00:18:26;;;;;;;;;;;27.80;56.20;;;;;;5116644;27;19923;-57
2021/06/26 00:20:53;;;;;;;;;;;27.80;56.20;;;;;;5134751;27;20032;-54
2021/06/26 00:23:20;;;;;;;;;;;27.80;56.20;;;;;;5116815;27;19931;-56
2021/06/26 00:25:47;;;;;;;;;;;27.80;56.20;;;;;;5134745;27;20366;-56
2021/06/26 00:28:14;;;;;;;;;;;27.80;56.20;;;;;;5118859;27;19967;-56
2021/06/26 00:30:41;;;;;;;;;;;27.80;56.20;;;;;;5134284;27;19924;-55
2021/06/26 00:33:08;;;;;;;;;;;27.80;56.20;;;;;;5134522;27;19924;-58
2021/06/26 00:35:35;;;;;;;;;;;27.80;56.20;;;;;;5130729;27;19927;-57
2021/06/26 00:38:03;;;;;;;;;;;27.80;56.20;;;;;;5132319;27;19946;-58
2021/06/26 00:40:30;;;;;;;;;;;27.80;56.20;;;;;;5133408;27;19923;-58
2021/06/26 00:42:59;;;;;;;;;;;27.80;56.20;;;;;;5120490;27;19924;-57
2021/06/26 00:45:26;;;;;;;;;;;27.80;56.20;;;;;;5126330;27;19923;-55
2021/06/26 00:47:53;;;;;;;;;;;27.80;56.10;;;;;;5132016;27;20018;-56
2021/06/26 00:50:22;;;;;;;;;;;27.70;56.10;;;;;;5131801;27;20413;-55
2021/06/26 00:52:49;;;;;;;;;;;27.80;56.10;;;;;;5131222;27;19976;-57
2021/06/26 00:55:17;;;;;;;;;;;27.80;56.20;;;;;;5132204;27;19963;-54
2021/06/26 00:57:47;;;;;;;;;;;27.80;56.20;;;;;;5131295;27;19927;-55
2021/06/26 01:00:14;;;;;;;;;;;27.80;56.10;;;;;;5107741;28;19930;-56
2021/06/26 01:02:41;;;;;;;;;;;27.80;56.10;;;;;;5115682;27;19924;-56
2021/06/26 01:05:09;;;;;;;;;;;27.70;56.10;;;;;;5119830;27;19972;-56
2021/06/26 01:07:36;;;;;;;;;;;27.80;56.10;;;;;;5131097;27;20329;-52
2021/06/26 01:10:04;;;;;;;;;;;27.80;56.10;;;;;;5131212;27;19923;-54
2021/06/26 01:12:31;;;;;;;;;;;27.80;56.10;;;;;;5129917;27;19923;-52
2021/06/26 01:14:58;;;;;;;;;;;27.70;56.10;;;;;;5117546;27;19924;-55
2021/06/26 01:17:25;;;;;;;;;;;27.70;56.10;;;;;;5132677;27;19977;-57
2021/06/26 01:19:52;;;;;;;;;;;27.70;56.10;;;;;;5133026;27;19924;-56
2021/06/26 01:22:22;;;;;;;;;;;27.70;56.10;;;;;;5113138;27;19967;-55
2021/06/26 01:24:53;;;;;;;;;;;27.80;56.10;;;;;;5132827;27;19930;-55
2021/06/26 01:27:21;;;;;;;;;;;27.70;56.10;;;;;;5131349;27;20367;-53
2021/06/26 01:29:48;;;;;;;;;;;27.70;56.10;;;;;;5131319;27;19927;-53
2021/06/26 01:32:16;;;;;;;;;;;27.80;56.10;;;;;;5132188;27;19924;-53
2021/06/26 01:34:44;;;;;;;;;;;27.80;56.10;;;;;;5131073;27;20375;-55
2021/06/26 01:37:11;;;;;;;;;;;27.70;56.10;;;;;;5132647;27;20263;-57
2021/06/26 01:39:38;;;;;;;;;;;27.70;56.10;;;;;;5130191;28;19923;-55
2021/06/26 01:42:06;;;;;;;;;;;27.80;56.10;;;;;;5131955;28;19980;-53
2021/06/26 01:44:33;;;;;;;;;;;27.70;56.00;;;;;;5124506;28;19973;-56
2021/06/26 01:47:01;;;;;;;;;;;27.70;56.10;;;;;;5109401;28;19923;-57
2021/06/26 01:49:28;;;;;;;;;;;27.70;56.00;;;;;;5130772;28;19927;-57
2021/06/26 01:51:55;;;;;;;;;;;27.70;56.10;;;;;;5129713;28;20399;-55
2021/06/26 01:54:22;;;;;;;;;;;27.70;56.00;;;;;;5121565;28;19924;-56
2021/06/26 01:56:48;;;;;;;;;;;27.80;56.10;;;;;;5123360;28;19924;-56
2021/06/26 01:59:15;;;;;;;;;;;27.80;56.10;;;;;;5126196;28;19924;-55
2021/06/26 02:01:42;;;;;;;;;;;27.70;56.00;;;;;;5119048;28;19967;-54
2021/06/26 02:04:10;;;;;;;;;;;27.80;56.10;;;;;;5131358;28;19972;-56
2021/06/26 02:06:36;;;;;;;;;;;27.80;56.10;;;;;;5129964;28;19931;-56
2021/06/26 02:09:04;;;;;;;;;;;27.70;56.00;;;;;;5129567;28;19968;-58
2021/06/26 02:11:31;;;;;;;;;;;27.70;56.00;;;;;;5128293;28;20382;-55
2021/06/26 02:13:58;;;;;;;;;;;27.80;56.10;;;;;;5114811;28;20432;-56
2021/06/26 02:16:25;;;;;;;;;;;27.80;56.10;;;;;;5131180;28;19927;-58
2021/06/26 02:18:53;;;;;;;;;;;27.70;56.10;;;;;;5130421;28;19932;-56
2021/06/26 02:21:20;;;;;;;;;;;27.80;56.10;;;;;;5131314;28;19923;-55
2021/06/26 02:23:47;;;;;;;;;;;27.80;56.10;;;;;;5133674;28;19924;-55
2021/06/26 02:26:14;;;;;;;;;;;27.80;56.10;;;;;;5132941;28;20043;-57
2021/06/26 02:28:41;;;;;;;;;;;27.80;56.10;;;;;;5130950;28;19924;-55
2021/06/26 02:31:08;;;;;;;;;;;27.80;56.10;;;;;;5133035;28;20039;-55
2021/06/26 02:33:35;;;;;;;;;;;27.80;56.10;;;;;;5112680;28;19978;-53
2021/06/26 02:36:02;;;;;;;;;;;27.80;56.10;;;;;;5130732;28;20440;-57
2021/06/26 02:38:29;;;;;;;;;;;27.80;56.10;;;;;;5115590;27;20260;-56
2021/06/26 02:40:56;;;;;;;;;;;27.70;56.00;;;;;;5133182;27;19923;-56
2021/06/26 02:43:23;;;;;;;;;;;27.80;56.10;;;;;;5135822;27;19924;-54
2021/06/26 02:45:50;;;;;;;;;;;27.80;56.10;;;;;;5133086;27;19930;-55
2021/06/26 02:48:17;;;;;;;;;;;27.80;56.10;;;;;;5118212;27;19967;-56
2021/06/26 02:50:44;;;;;;;;;;;27.80;56.10;;;;;;5134022;27;20374;-54
2021/06/26 02:53:11;;;;;;;;;;;27.70;56.10;;;;;;5135000;27;19976;-57
2021/06/26 02:55:38;;;;;;;;;;;27.70;56.10;;;;;;5127829;27;19947;-56
2021/06/26 02:58:05;;;;;;;;;;;27.80;56.10;;;;;;5116955;27;19976;-56
2021/06/26 03:00:32;;;;;;;;;;;27.70;56.10;;;;;;5117467;27;19969;-55
2021/06/26 03:03:00;;;;;;;;;;;27.70;56.10;;;;;;5104874;27;20348;-57
2021/06/26 03:05:27;;;;;;;;;;;27.70;56.10;;;;;;5118379;27;19988;-56
2021/06/26 03:07:55;;;;;;;;;;;27.70;56.10;;;;;;5133529;27;19924;-55
2021/06/26 03:10:22;;;;;;;;;;;27.80;56.20;;;;;;5119647;27;19938;-57
2021/06/26 03:12:49;;;;;;;;;;;27.70;56.10;;;;;;5134231;27;20333;-58
2021/06/26 03:15:16;;;;;;;;;;;27.70;56.10;;;;;;5135466;27;20391;-56
2021/06/26 03:17:43;;;;;;;;;;;27.70;56.10;;;;;;5135430;27;19957;-55
2021/06/26 03:20:10;;;;;;;;;;;27.80;56.20;;;;;;5134055;27;19927;-54
2021/06/26 03:22:38;;;;;;;;;;;27.70;56.10;;;;;;5134138;27;19927;-55
2021/06/26 03:25:05;;;;;;;;;;;27.70;56.10;;;;;;5134647;27;19923;-57
2021/06/26 03:27:32;;;;;;;;;;;27.70;56.10;;;;;;5125370;27;19928;-56
2021/06/26 03:29:59;;;;;;;;;;;27.80;56.20;;;;;;5129938;27;19923;-54
2021/06/26 03:32:26;;;;;;;;;;;27.80;56.10;;;;;;5132000;27;19976;-55
2021/06/26 03:34:53;;;;;;;;;;;27.80;56.10;;;;;;5132995;27;19928;-54
2021/06/26 03:37:20;;;;;;;;;;;27.80;56.20;;;;;;5131946;27;19972;-53
2021/06/26 03:39:47;;;;;;;;;;;27.80;56.10;;;;;;5133369;27;19943;-53
2021/06/26 03:42:14;;;;;;;;;;;27.80;56.10;;;;;;5133474;27;19972;-55
2021/06/26 03:44:41;;;;;;;;;;;27.80;56.10;;;;;;5126106;27;19969;-55
2021/06/26 03:47:08;;;;;;;;;;;27.80;56.10;;;;;;5124010;27;19934;-56
2021/06/26 03:49:38;;;;;;;;;;;27.80;56.10;;;;;;5134172;27;20033;-56
2021/06/26 03:52:06;;;;;;;;;;;27.80;56.00;;;;;;5135216;27;20321;-57
2021/06/26 03:54:33;;;;;;;;;;;27.80;56.00;;;;;;5128611;27;19927;-55
2021/06/26 03:57:01;;;;;;;;;;;27.80;56.00;;;;;;5121196;27;19928;-53
2021/06/26 03:59:28;;;;;;;;;;;27.90;56.00;;;;;;5112442;27;19928;-54
2021/06/26 04:01:55;;;;;;;;;;;27.90;56.00;;;;;;5120482;27;19924;-54
2021/06/26 04:04:22;;;;;;;;;;;27.90;56.00;;;;;;5131734;27;19924;-54
2021/06/26 04:06:49;;;;;;;;;;;27.90;56.00;;;;;;5134990;27;20267;-54
2021/06/26 04:09:16;;;;;;;;;;;27.90;56.00;;;;;;5115677;27;20317;-55
2021/06/26 04:11:43;;;;;;;;;;;27.90;55.90;;;;;;5134666;27;19924;-53
2021/06/26 04:14:09;;;;;;;;;;;27.90;55.90;;;;;;5134260;27;19931;-52
2021/06/26 04:16:37;;;;;;;;;;;27.90;55.80;;;;;;5134003;27;19927;-58
2021/06/26 04:19:04;;;;;;;;;;;27.90;55.80;;;;;;5133045;27;19924;-54
2021/06/26 04:21:31;;;;;;;;;;;28.00;55.90;;;;;;5133334;27;19972;-55
2021/06/26 04:23:58;;;;;;;;;;;28.00;55.90;;;;;;5130963;27;19923;-56
2021/06/26 04:26:25;;;;;;;;;;;28.00;55.80;;;;;;5118136;27;20505;-52
2021/06/26 04:28:52;;;;;;;;;;;28.00;55.80;;;;;;5132039;27;19976;-51
2021/06/26 04:31:19;;;;;;;;;;;28.00;55.70;;;;;;5131339;27;19927;-56
2021/06/26 04:33:46;;;;;;;;;;;28.00;55.70;;;;;;5131201;27;19927;-55
2021/06/26 04:36:14;;;;;;;;;;;28.10;55.70;;;;;;5130747;27;19923;-55
2021/06/26 04:38:42;;;;;;;;;;;28.10;55.60;;;;;;5124681;27;19930;-56
2021/06/26 04:41:09;;;;;;;;;;;28.10;55.60;;;;;;5123441;27;19935;-55
2021/06/26 04:43:36;;;;;;;;;;;28.10;55.50;;;;;;5126816;27;20337;-54
2021/06/26 04:46:07;;;;;;;;;;;28.10;55.50;;;;;;5114215;27;19973;-52
2021/06/26 04:48:35;;;;;;;;;;;28.20;55.50;;;;;;5119984;27;19939;-53
2021/06/26 04:51:02;;;;;;;;;;;28.20;55.40;;;;;;5133094;27;19924;-55
2021/06/26 04:53:29;;;;;;;;;;;28.20;55.30;;;;;;5133000;27;20488;-53
2021/06/26 04:55:56;;;;;;;;;;;28.30;55.40;;;;;;5130742;27;19930;-57
2021/06/26 04:58:24;;;;;;;;;;;28.30;55.30;;;;;;5132781;27;19958;-56
2021/06/26 05:00:51;;;;;;;;;;;28.30;55.20;;;;;;5131582;27;19923;-56
2021/06/26 05:03:19;;;;;;;;;;;28.40;55.20;;;;;;5131550;27;19931;-56
2021/06/26 05:05:47;;;;;;;;;;;28.40;55.10;;;;;;5134366;27;20293;-56
2021/06/26 05:08:14;;;;;;;;;;;28.40;55.10;;;;;;5113398;28;19930;-57
2021/06/26 05:10:41;;;;;;;;;;;28.40;55.00;;;;;;5131456;27;19927;-57
2021/06/26 05:13:09;;;;;;;;;;;28.40;55.00;;;;;;5131509;27;19934;-57
2021/06/26 05:15:36;;;;;;;;;;;28.40;55.00;;;;;;5132355;27;19930;-54
2021/06/26 05:18:03;;;;;;;;;;;28.40;55.00;;;;;;5131509;27;19976;-54
2021/06/26 05:20:30;;;;;;;;;;;28.50;55.00;;;;;;5131522;27;19924;-53
2021/06/26 05:22:58;;;;;;;;;;;28.50;55.00;;;;;;5131262;27;19931;-56
2021/06/26 05:25:25;;;;;;;;;;;28.50;55.60;;;;;;5132587;27;19984;-54
2021/06/26 05:27:52;;;;;;;;;;;28.50;54.90;;;;;;5119271;27;19924;-53
2021/06/26 05:30:19;;;;;;;;;;;28.50;54.90;;;;;;5126898;27;20013;-55
2021/06/26 05:32:46;;;;;;;;;;;28.60;54.90;;;;;;5121448;27;19924;-57
2021/06/26 05:35:13;;;;;;;;;;;28.60;54.90;;;;;;5126792;27;19924;-55
2021/06/26 05:37:43;;;;;;;;;;;28.60;54.90;;;;;;5123178;27;19924;-55
2021/06/26 05:40:11;;;;;;;;;;;28.60;54.90;;;;;;5122538;28;20332;-56
2021/06/26 05:42:38;;;;;;;;;;;28.60;54.90;;;;;;5124648;28;20393;-56
2021/06/26 05:45:05;;;;;;;;;;;28.60;54.90;;;;;;5119227;28;19928;-54
2021/06/26 05:47:32;;;;;;;;;;;28.60;54.90;;;;;;5131957;28;20409;-56
2021/06/26 05:49:59;;;;;;;;;;;28.60;54.90;;;;;;5129087;28;19927;-55
2021/06/26 05:52:26;;;;;;;;;;;28.60;54.90;;;;;;5132394;28;20332;-55
2021/06/26 05:54:53;;;;;;;;;;;28.60;54.90;;;;;;5129706;28;19928;-55
2021/06/26 05:57:20;;;;;;;;;;;28.60;54.90;;;;;;5131146;28;19936;-52
2021/06/26 05:59:47;;;;;;;;;;;28.60;54.90;;;;;;5130646;28;19923;-53
2021/06/26 06:02:14;;;;;;;;;;;28.70;54.90;;;;;;5129980;28;19923;-54
2021/06/26 06:04:42;;;;;;;;;;;28.70;54.90;;;;;;5113844;28;19946;-52
2021/06/26 06:07:09;;;;;;;;;;;28.70;54.90;;;;;;5115457;28;19934;-57
2021/06/26 06:09:36;;;;;;;;;;;28.70;54.90;;;;;;5114587;28;19924;-54
2021/06/26 06:12:03;;;;;;;;;;;28.70;54.90;;;;;;5132036;28;20320;-55
2021/06/26 06:14:30;;;;;;;;;;;28.70;54.90;;;;;;5116104;27;20021;-54
2021/06/26 06:16:57;;;;;;;;;;;28.70;54.90;;;;;;5134674;27;19927;-52
2021/06/26 06:19:24;;;;;;;;;;;28.70;54.90;;;;;;5133864;27;19953;-54
2021/06/26 06:21:51;;;;;;;;;;;28.70;54.90;;;;;;5134768;27;19976;-54
2021/06/26 06:24:18;;;;;;;;;;;28.70;54.90;;;;;;5116929;27;20399;-55
2021/06/26 06:26:45;;;;;;;;;;;28.70;54.90;;;;;;5116760;27;19930;-54
2021/06/26 06:29:12;;;;;;;;;;;28.70;55.00;;;;;;5134274;27;19923;-56
2021/06/26 06:31:39;;;;;;;;;;;28.70;54.90;;;;;;5127223;27;20324;-54
2021/06/26 06:34:06;;;;;;;;;;;28.70;54.90;;;;;;5117575;27;20342;-56
2021/06/26 06:36:33;;;;;;;;;;;28.70;54.90;;;;;;5125220;27;19927;-55
2021/06/26 06:39:00;;;;;;;;;;;28.70;54.90;;;;;;5134334;27;19992;-54
2021/06/26 06:41:27;;;;;;;;;;;28.70;54.80;;;;;;5135286;27;19923;-52
2021/06/26 06:43:54;;;;;;;;;;;28.70;54.80;;;;;;5135414;27;19923;-55
2021/06/26 06:46:21;;;;;;;;;;;28.80;54.80;;;;;;5120802;27;19984;-55
2021/06/26 06:48:48;;;;;;;;;;;28.80;54.80;;;;;;5135228;27;19935;-54
2021/06/26 06:51:15;;;;;;;;;;;28.80;54.70;;;;;;5117496;27;20329;-55
2021/06/26 06:53:42;;;;;;;;;;;28.70;54.70;;;;;;5134398;27;20337;-54
2021/06/26 06:56:09;;;;;;;;;;;28.70;54.70;;;;;;5134091;27;19924;-56
2021/06/26 06:58:36;;;;;;;;;;;28.70;54.70;;;;;;5117378;27;19953;-57
2021/06/26 07:01:03;;;;;;;;;;;28.70;54.70;;;;;;5134406;27;19927;-56
2021/06/26 07:03:30;;;;;;;;;;;28.70;54.80;;;;;;5135046;27;20018;-52
2021/06/26 07:05:57;;;;;;;;;;;28.70;54.80;;;;;;5133629;27;19924;-56
2021/06/26 07:08:24;;;;;;;;;;;28.70;54.90;;;;;;5132540;27;19924;-56
2021/06/26 07:10:51;;;;;;;;;;;28.70;54.90;;;;;;5132386;27;19953;-55
2021/06/26 07:13:18;;;;;;;;;;;28.70;55.00;;;;;;5132605;27;19984;-53
2021/06/26 07:15:45;;;;;;;;;;;28.70;55.00;;;;;;5120114;27;19923;-53
2021/06/26 07:18:12;;;;;;;;;;;28.70;54.90;;;;;;5116886;27;20002;-56
2021/06/26 07:20:40;;;;;;;;;;;28.70;54.90;;;;;;5118481;27;19928;-55
2021/06/26 07:23:07;;;;;;;;;;;28.70;54.80;;;;;;5129108;27;19927;-56
2021/06/26 07:25:34;;;;;;;;;;;28.80;54.80;;;;;;5123467;27;19973;-55
2021/06/26 07:28:02;;;;;;;;;;;28.80;54.70;;;;;;5117550;27;19924;-55
2021/06/26 07:30:29;;;;;;;;;;;28.90;54.60;;;;;;5124429;27;20379;-53
2021/06/26 07:32:56;;;;;;;;;;;28.90;54.40;;;;;;5133514;27;19923;-56
2021/06/26 07:35:23;;;;;;;;;;;28.90;54.30;;;;;;5109849;28;19923;-54
2021/06/26 07:37:50;;;;;;;;;;;28.90;54.30;;;;;;5121378;27;19923;-56
2021/06/26 07:40:17;;;;;;;;;;;28.90;54.30;;;;;;5133485;27;19971;-57
2021/06/26 07:42:45;;;;;;;;;;;28.90;54.30;;;;;;5132344;27;19969;-56
2021/06/26 07:45:12;;;;;;;;;;;28.90;54.30;;;;;;5127773;27;19924;-54
2021/06/26 07:47:39;;;;;;;;;;;28.90;54.30;;;;;;5133296;27;19931;-56
2021/06/26 07:50:06;;;;;;;;;;;28.90;54.40;;;;;;5132871;27;19931;-57
2021/06/26 07:52:33;;;;;;;;;;;28.90;54.30;;;;;;5134251;27;19931;-56
2021/06/26 07:55:01;;;;;;;;;;;28.90;54.30;;;;;;5133453;27;19943;-57
2021/06/26 07:57:28;;;;;;;;;;;28.90;54.20;;;;;;5134759;27;19974;-56
2021/06/26 07:59:55;;;;;;;;;;;28.90;54.40;;;;;;5132797;27;19976;-58
2021/06/26 08:02:22;;;;;;;;;;;28.90;54.30;;;;;;5132397;27;20328;-58
2021/06/26 08:04:49;;;;;;;;;;;28.80;54.20;;;;;;5133701;27;19982;-55
2021/06/26 08:07:19;;;;;;;;;;;28.80;54.20;;;;;;5132895;27;20003;-57
2021/06/26 08:09:46;;;;;;;;;;;28.80;54.30;;;;;;5133172;27;20336;-57
2021/06/26 08:12:15;;;;;;;;;;;28.80;54.20;;;;;;5118462;27;19977;-54
2021/06/26 08:14:42;;;;;;;;;;;28.80;54.30;;;;;;5130386;27;20018;-56
2021/06/26 08:17:10;;;;;;;;;;;28.80;54.30;;;;;;5120605;27;19923;-52
2021/06/26 08:19:38;;;;;;;;;;;28.80;54.30;;;;;;5117900;27;20371;-53
2021/06/26 08:22:05;;;;;;;;;;;28.80;54.40;;;;;;5126432;27;20291;-55
2021/06/26 08:24:32;;;;;;;;;;;28.80;54.30;;;;;;5132415;27;19923;-53
2021/06/26 08:27:01;;;;;;;;;;;28.80;54.30;;;;;;5128384;27;20403;-54
2021/06/26 08:29:28;;;;;;;;;;;28.80;54.30;;;;;;5133089;27;19924;-56
2021/06/26 08:31:55;;;;;;;;;;;28.80;54.30;;;;;;5134593;27;20439;-55
2021/06/26 08:34:22;;;;;;;;;;;28.80;54.30;;;;;;5133372;27;19923;-57
2021/06/26 08:36:50;;;;;;;;;;;28.80;54.30;;;;;;5133933;27;19927;-52
2021/06/26 08:39:20;;;;;;;;;;;28.80;54.20;;;;;;5114921;27;19924;-56
2021/06/26 08:41:50;;;;;;;;;;;28.80;54.20;;;;;;5132228;27;20328;-55
2021/06/26 08:44:19;;;;;;;;;;;28.80;54.20;;;;;;5113106;27;19931;-54
2021/06/26 08:46:49;;;;;;;;;;;28.80;54.30;;;;;;5131745;27;19923;-53
2021/06/26 08:49:16;;;;;;;;;;;28.80;54.30;;;;;;5133043;27;19972;-56
2021/06/26 08:51:43;;;;;;;;;;;28.80;54.30;;;;;;5133059;27;19924;-55
2021/06/26 08:54:12;;;;;;;;;;;28.80;54.30;;;;;;5130920;27;19961;-56
2021/06/26 08:56:44;;;;;;;;;;;28.80;54.30;;;;;;5114161;28;19932;-54
2021/06/26 08:59:11;;;;;;;;;;;28.80;54.30;;;;;;5133349;27;19947;-54
2021/06/26 09:01:39;;;;;;;;;;;28.80;54.20;;;;;;5131689;27;19927;-57
2021/06/26 09:04:10;;;;;;;;;;;28.80;54.10;;;;;;5131756;27;20449;-55
2021/06/26 09:06:56;;;;;;;;;;;28.80;54.00;;;;;;5134148;27;19943;-53
2021/06/26 09:09:30;;;;;;;;;;;28.90;54.00;;;;;;5113361;28;19924;-54
2021/06/26 09:12:00;;;;;;;;;;;28.90;53.80;;;;;;5095297;28;19973;-57
2021/06/26 09:14:27;;;;;;;;;;;28.90;53.80;;;;;;5133550;27;20382;-56
2021/06/26 09:16:54;;;;;;;;;;;28.90;53.80;;;;;;5132569;27;19927;-58
2021/06/26 09:19:21;;;;;;;;;;;28.90;53.80;;;;;;5114560;27;19923;-54
2021/06/26 09:22:14;;;;;;;;;;;28.90;53.80;;;;;;5130959;27;19946;-56
2021/06/26 09:24:43;;;;;;;;;;;28.90;53.90;;;;;;5128832;27;19923;-55
2021/06/26 09:27:11;;;;;;;;;;;28.80;53.70;;;;;;5131248;27;19927;-57
2021/06/26 09:29:47;;;;;;;;;;;28.80;53.80;;;;;;5132575;27;19983;-53
2021/06/26 09:32:20;;;;;;;;;;;28.80;53.70;;;;;;5132977;27;19974;-56
2021/06/26 09:34:47;;;;;;;;;;;28.80;53.80;;;;;;5133046;27;19923;-54
2021/06/26 09:37:19;;;;;;;;;;;28.80;53.80;;;;;;5129515;27;20379;-57
2021/06/26 09:39:46;;;;;;;;;;;28.80;53.70;;;;;;5129905;27;19969;-54
2021/06/26 09:42:21;;;;;;;;;;;28.80;53.70;;;;;;5132156;28;19923;-56
2021/06/26 09:45:00;;;;;;;;;;;28.80;53.70;;;;;;5130183;28;19924;-57
2021/06/26 09:47:27;;;;;;;;;;;28.80;53.70;;;;;;5115458;28;19924;-54
2021/06/26 09:50:05;;;;;;;;;;;28.80;53.70;;;;;;5134801;27;19923;-55
2021/06/26 09:52:42;;;;;;;;;;;28.90;53.60;;;;;;5135622;27;19923;-54
2021/06/26 09:55:20;;;;;;;;;;;28.90;53.60;;;;;;5135578;27;19924;-52
2021/06/26 09:57:48;;;;;;;;;;;28.90;53.60;;;;;;5118964;27;19927;-52
2021/06/26 10:00:16;;;;;;;;;;;28.80;53.50;;;;;;5135061;27;19923;-52
2021/06/26 10:02:44;;;;;;;;;;;28.80;53.40;;;;;;5119931;27;19924;-53
2021/06/26 10:05:12;;;;;;;;;;;28.80;53.40;;;;;;5134530;27;19923;-55
2021/06/26 10:07:39;;;;;;;;;;;28.80;53.30;;;;;;5137310;27;19931;-53
2021/06/26 10:10:09;;;;;;;;;;;28.80;53.40;;;;;;5117329;27;19973;-54
2021/06/26 10:12:36;;;;;;;;;;;28.90;53.40;;;;;;5122963;27;19924;-55
2021/06/26 10:15:04;;;;;;;;;;;28.90;53.20;;;;;;5129665;27;19983;-52
2021/06/26 10:17:33;;;;;;;;;;;28.90;53.10;;;;;;5136269;27;19923;-55
2021/06/26 10:20:06;;;;;;;;;;;28.90;53.10;;;;;;5133447;27;19968;-53
2021/06/26 10:22:40;;;;;;;;;;;28.90;53.00;;;;;;5135830;27;19972;-55
2021/06/26 10:25:08;;;;;;;;;;;28.90;53.00;;;;;;5133596;27;19923;-56
2021/06/26 10:27:35;;;;;;;;;;;28.90;53.00;;;;;;5125909;27;19969;-57
2021/06/26 10:30:12;;;;;;;;;;;28.90;53.10;;;;;;5124924;27;19930;-52
2021/06/26 10:32:56;;;;;;;;;;;28.90;53.20;;;;;;5130506;27;20435;-56
2021/06/26 10:35:24;;;;;;;;;;;28.80;53.20;;;;;;5126213;27;19930;-55
2021/06/26 10:38:06;;;;;;;;;;;28.80;53.20;;;;;;5134448;27;20383;-56
2021/06/26 10:40:38;;;;;;;;;;;28.90;53.20;;;;;;5134012;27;19923;-57
2021/06/26 10:43:15;;;;;;;;;;;28.90;53.10;;;;;;5127016;27;19924;-56
2021/06/26 10:45:42;;;;;;;;;;;28.90;53.10;;;;;;5128190;27;19923;-56
2021/06/26 10:48:19;;;;;;;;;;;28.90;52.90;;;;;;5136768;27;19923;-54
2021/06/26 10:50:48;;;;;;;;;;;28.90;52.80;;;;;;5134327;27;20405;-58
2021/06/26 10:53:23;;;;;;;;;;;28.80;52.70;;;;;;5134808;27;20363;-57
2021/06/26 10:55:57;;;;;;;;;;;28.80;52.60;;;;;;5124681;27;19977;-56
2021/06/26 10:58:44;;;;;;;;;;;28.80;53.10;;;;;;5118205;27;19923;-57
2021/06/26 11:01:17;;;;;;;;;;;28.80;53.20;;;;;;5116987;27;19946;-57
2021/06/26 11:03:45;;;;;;;;;;;28.80;53.00;;;;;;5126869;27;20371;-53
2021/06/26 11:06:17;;;;;;;;;;;28.80;53.10;;;;;;5135553;27;20379;-54
2021/06/26 11:08:54;;;;;;;;;;;28.80;53.20;;;;;;5133828;27;19924;-53
2021/06/26 11:11:35;;;;;;;;;;;28.80;53.20;;;;;;5123189;27;19973;-56
2021/06/26 11:14:06;;;;;;;;;;;28.80;53.20;;;;;;5130908;27;20320;-56
2021/06/26 11:16:33;;;;;;;;;;;28.80;53.20;;;;;;5133929;27;19931;-55
2021/06/26 11:19:00;;;;;;;;;;;28.80;53.30;;;;;;5126189;27;19927;-54
2021/06/26 11:21:28;;;;;;;;;;;28.80;53.30;;;;;;5125582;27;20387;-55
2021/06/26 11:23:55;;;;;;;;;;;28.80;53.40;;;;;;5132537;27;19927;-55
2021/06/26 11:26:22;;;;;;;;;;;28.80;53.40;;;;;;5136244;27;19924;-57
2021/06/26 11:28:49;;;;;;;;;;;28.80;53.40;;;;;;5106798;27;19923;-56
2021/06/26 11:31:16;;;;;;;;;;;28.80;53.40;;;;;;5134640;27;19927;-56
2021/06/26 11:33:43;;;;;;;;;;;28.80;53.40;;;;;;5134563;27;20399;-56
2021/06/26 11:36:11;;;;;;;;;;;28.80;53.40;;;;;;5133747;27;20259;-57
2021/06/26 11:38:38;;;;;;;;;;;28.80;53.90;;;;;;5134183;27;19927;-55
2021/06/26 11:41:07;;;;;;;;;;;28.80;53.30;;;;;;5134389;27;19923;-55
2021/06/26 11:43:34;;;;;;;;;;;28.80;53.30;;;;;;5134784;27;19924;-55
2021/06/26 11:46:01;;;;;;;;;;;28.80;53.20;;;;;;5117583;27;20355;-53
2021/06/26 11:48:28;;;;;;;;;;;28.80;53.20;;;;;;5133325;27;19927;-56
2021/06/26 11:50:57;;;;;;;;;;;28.80;53.10;;;;;;5133507;27;19923;-54
2021/06/26 11:53:25;;;;;;;;;;;28.80;53.00;;;;;;5133708;27;19924;-55
2021/06/26 11:55:58;;;;;;;;;;;28.80;53.00;;;;;;5135959;27;19976;-55
2021/06/26 11:58:36;;;;;;;;;;;28.70;52.90;;;;;;5133696;27;19931;-56
2021/06/26 12:01:07;;;;;;;;;;;28.80;53.00;;;;;;5133119;27;19927;-57
2021/06/26 12:03:35;;;;;;;;;;;28.70;52.90;;;;;;5133568;27;20014;-57
2021/06/26 12:06:05;;;;;;;;;;;28.70;52.90;;;;;;5116148;27;19924;-56
2021/06/26 12:08:46;;;;;;;;;;;28.70;52.90;;;;;;5132261;27;19923;-55
2021/06/26 12:11:17;;;;;;;;;;;28.70;52.80;;;;;;5132579;27;19970;-56
2021/06/26 12:13:46;;;;;;;;;;;28.70;52.90;;;;;;5117234;27;19946;-55
2021/06/26 12:16:18;;;;;;;;;;;28.70;52.80;;;;;;5115741;27;19924;-54
2021/06/26 12:18:49;;;;;;;;;;;28.70;52.80;;;;;;5115787;27;19989;-55
2021/06/26 12:21:16;;;;;;;;;;;28.70;52.70;;;;;;5116564;27;20232;-55
2021/06/26 12:23:47;;;;;;;;;;;28.70;52.60;;;;;;5129186;27;19981;-54
2021/06/26 12:26:24;;;;;;;;;;;28.70;52.60;;;;;;5131067;27;19946;-56
2021/06/26 12:28:52;;;;;;;;;;;28.70;52.60;;;;;;5131538;27;19923;-57
2021/06/26 12:31:22;;;;;;;;;;;28.70;52.50;;;;;;5132233;27;19934;-56
2021/06/26 12:34:03;;;;;;;;;;;28.80;52.30;;;;;;5132153;27;20324;-56
2021/06/26 12:36:30;;;;;;;;;;;28.70;52.30;;;;;;5117815;27;19927;-54
2021/06/26 12:38:57;;;;;;;;;;;28.70;52.20;;;;;;5130854;27;19976;-54
2021/06/26 12:41:26;;;;;;;;;;;28.70;52.20;;;;;;5131970;27;19931;-57
2021/06/26 12:43:56;;;;;;;;;;;28.70;52.10;;;;;;5130646;27;20381;-54
2021/06/26 12:46:24;;;;;;;;;;;28.70;52.00;;;;;;5124707;27;19972;-54
2021/06/26 12:49:03;;;;;;;;;;;28.70;52.10;;;;;;5131795;27;19927;-56
2021/06/26 12:51:38;;;;;;;;;;;28.70;52.10;;;;;;5131814;27;19928;-56
2021/06/26 12:54:10;;;;;;;;;;;28.70;51.90;;;;;;5131366;27;19984;-57
2021/06/26 12:56:40;;;;;;;;;;;28.70;51.80;;;;;;5123490;27;19924;-58
2021/06/26 12:59:10;;;;;;;;;;;28.70;51.70;;;;;;5114558;27;20219;-56
2021/06/26 13:01:40;;;;;;;;;;;28.70;51.60;;;;;;5126548;27;19923;-58
2021/06/26 13:04:12;;;;;;;;;;;28.70;51.40;;;;;;5123817;27;19924;-56
2021/06/26 13:06:45;;;;;;;;;;;28.70;51.50;;;;;;5117323;27;19924;-56
2021/06/26 13:09:12;;;;;;;;;;;28.70;51.60;;;;;;5116279;27;20290;-56
2021/06/26 13:11:40;;;;;;;;;;;28.70;51.60;;;;;;5123624;27;19984;-56
2021/06/26 13:14:07;;;;;;;;;;;28.70;51.50;;;;;;5131514;27;19927;-54
2021/06/26 13:16:35;;;;;;;;;;;28.70;51.50;;;;;;5131886;27;19976;-54
2021/06/26 13:19:03;;;;;;;;;;;28.70;51.50;;;;;;5131623;27;20038;-56
2021/06/26 13:21:30;;;;;;;;;;;28.70;51.50;;;;;;5132442;27;19923;-57
2021/06/26 13:23:57;;;;;;;;;;;28.70;51.50;;;;;;5115872;27;19985;-56
2021/06/26 13:26:25;;;;;;;;;;;28.70;51.50;;;;;;5128978;27;19923;-55
2021/06/26 13:28:53;;;;;;;;;;;28.70;51.40;;;;;;5128455;27;19924;-54
2021/06/26 13:31:30;;;;;;;;;;;28.70;51.50;;;;;;5132584;27;20402;-56
2021/06/26 13:33:57;;;;;;;;;;;28.70;51.50;;;;;;5113649;28;19923;-57
2021/06/26 13:36:24;;;;;;;;;;;28.70;51.50;;;;;;5130120;27;19935;-58
2021/06/26 13:38:51;;;;;;;;;;;28.70;51.50;;;;;;5115927;28;20328;-57
2021/06/26 13:41:20;;;;;;;;;;;28.70;51.60;;;;;;5131026;27;19923;-58
2021/06/26 13:43:48;;;;;;;;;;;28.70;51.60;;;;;;5132000;27;20371;-57
2021/06/26 13:46:17;;;;;;;;;;;28.70;51.60;;;;;;5132338;28;19924;-58
2021/06/26 13:48:44;;;;;;;;;;;28.70;51.70;;;;;;5115159;28;19930;-56
2021/06/26 13:51:11;;;;;;;;;;;28.70;51.60;;;;;;5115489;28;20398;-57
2021/06/26 13:53:38;;;;;;;;;;;28.70;52.20;;;;;;5130515;28;19976;-55
2021/06/26 13:56:05;;;;;;;;;;;28.70;51.70;;;;;;5116892;28;20290;-55
2021/06/26 13:58:32;;;;;;;;;;;28.70;51.70;;;;;;5114437;28;19927;-55
2021/06/26 14:00:59;;;;;;;;;;;28.70;51.70;;;;;;5109544;28;19930;-54
2021/06/26 14:03:26;;;;;;;;;;;28.70;51.70;;;;;;5133210;28;20404;-55
2021/06/26 14:05:53;;;;;;;;;;;28.70;51.70;;;;;;5122000;28;19935;-57
2021/06/26 14:08:20;;;;;;;;;;;28.70;52.30;;;;;;5123794;28;19947;-55
2021/06/26 14:10:51;;;;;;;;;;;28.70;51.70;;;;;;5130909;28;19930;-57
2021/06/26 14:13:18;;;;;;;;;;;28.80;51.90;;;;;;5122734;28;20287;-54
2021/06/26 14:15:45;;;;;;;;;;;28.70;51.70;;;;;;5122154;28;20010;-56
2021/06/26 14:18:13;;;;;;;;;;;28.70;51.80;;;;;;5130014;28;19923;-55
2021/06/26 14:20:40;;;;;;;;;;;28.70;51.80;;;;;;5130513;28;19923;-56
2021/06/26 14:23:07;;;;;;;;;;;28.70;51.70;;;;;;5129444;28;19924;-52